Time,TemperatureF,DewpointF,PressureIn,WindDirection,WindDirectionDegrees,WindSpeedMPH,WindSpeedGustMPH,Humidity,HourlyPrecipIn,Conditions,Clouds,dailyrainin,SoftwareType,DateUTC
2013-04-09 00:21:00,66.7,48.0,29.95,West,267,6.0,6.0,51,0.00,,,0.00,weatherlink.com 1.10,2013-04-09 04:21:00,
2013-04-09 00:36:00,67.0,49.0,29.95,WNW,284,4.0,8.0,52,0.00,,,0.00,weatherlink.com 1.10,2013-04-09 04:36:00,
2013-04-09 00:51:00,67.1,48.0,29.95,WNW,284,4.0,9.0,51,0.00,,,0.00,weatherlink.com 1.10,2013-04-09 04:51:00,
2013-04-09 01:06:00,67.2,49.0,29.95,West,259,6.0,13.0,52,0.00,,,0.00,weatherlink.com 1.10,2013-04-09 05:06:00,
2013-04-09 01:21:00,66.8,49.0,29.96,WSW,246,7.0,10.0,53,0.00,,,0.00,weatherlink.com 1.10,2013-04-09 05:21:00,
2013-04-09 01:36:00,66.4,49.0,29.96,West,271,3.0,7.0,54,0.00,,,0.00,weatherlink.com 1.10,2013-04-09 05:36:00,
2013-04-09 01:51:00,66.5,49.0,29.96,West,281,5.0,11.0,54,0.00,,,0.00,weatherlink.com 1.10,2013-04-09 05:51:00,
2013-04-09 02:06:00,66.4,50.0,29.96,West,277,5.0,10.0,56,0.00,,,0.00,weatherlink.com 1.10,2013-04-09 06:06:00,
2013-04-09 02:21:00,66.6,50.0,29.96,WSW,253,9.0,13.0,56,0.00,,,0.00,weatherlink.com 1.10,2013-04-09 06:21:00,
2013-04-09 02:36:00,66.0,51.0,29.96,WNW,297,7.0,15.0,59,0.00,,,0.00,weatherlink.com 1.10,2013-04-09 06:36:00,
2013-04-09 02:51:00,65.6,51.0,29.96,WNW,288,6.0,9.0,60,0.00,,,0.00,weatherlink.com 1.10,2013-04-09 06:51:00,
2013-04-09 03:21:00,61.3,51.0,29.97,West,264,1.0,3.0,70,0.00,,,0.00,weatherlink.com 1.10,2013-04-09 07:21:00,
2013-04-09 03:52:00,60.4,53.0,29.98,NW,310,0.0,2.0,77,0.00,,,0.00,weatherlink.com 1.10,2013-04-09 07:52:00,
2013-04-09 04:07:00,58.5,53.0,29.98,SW,234,0.0,1.0,81,0.00,,,0.00,weatherlink.com 1.10,2013-04-09 08:07:00,
2013-04-09 04:22:00,57.0,52.0,29.99,SW,236,0.0,1.0,84,0.00,,,0.00,weatherlink.com 1.10,2013-04-09 08:22:00,
2013-04-09 04:37:00,55.2,51.0,29.99,SW,236,0.0,0.0,85,0.00,,,0.00,weatherlink.com 1.10,2013-04-09 08:37:00,
2013-04-09 04:52:00,55.4,52.0,30.00,SW,236,0.0,0.0,87,0.00,,,0.00,weatherlink.com 1.10,2013-04-09 08:52:00,
2013-04-09 05:07:00,53.9,51.0,30.00,SW,234,0.0,0.0,89,0.00,,,0.00,weatherlink.com 1.10,2013-04-09 09:07:00,
2013-04-09 05:22:00,54.1,51.0,30.01,SW,233,0.0,0.0,89,0.00,,,0.00,weatherlink.com 1.10,2013-04-09 09:22:00,
2013-04-09 05:37:00,54.0,52.0,30.01,SW,233,0.0,0.0,91,0.00,,,0.00,weatherlink.com 1.10,2013-04-09 09:37:00,
2013-04-09 05:52:00,53.3,51.0,30.02,SW,233,1.0,1.0,91,0.00,,,0.00,weatherlink.com 1.10,2013-04-09 09:52:00,
2013-04-09 06:07:00,52.5,50.0,30.03,South,183,0.0,0.0,90,0.00,,,0.00,weatherlink.com 1.10,2013-04-09 10:07:00,
2013-04-09 06:22:00,52.6,50.0,30.03,South,183,0.0,0.0,92,0.00,,,0.00,weatherlink.com 1.10,2013-04-09 10:22:00,
2013-04-09 06:37:00,52.2,50.0,30.04,South,183,0.0,0.0,92,0.00,,,0.00,weatherlink.com 1.10,2013-04-09 10:37:00,
2013-04-09 06:52:00,51.7,50.0,30.05,SW,225,0.0,1.0,93,0.00,,,0.00,weatherlink.com 1.10,2013-04-09 10:52:00,
2013-04-09 07:07:00,51.4,50.0,30.06,SE,140,0.0,1.0,93,0.00,,,0.00,weatherlink.com 1.10,2013-04-09 11:07:00,
2013-04-09 07:22:00,52.2,51.0,30.07,North,360,1.0,2.0,94,0.00,,,0.00,weatherlink.com 1.10,2013-04-09 11:22:00,
2013-04-09 07:37:00,51.8,50.0,30.07,East,82,0.0,4.0,93,0.00,,,0.00,weatherlink.com 1.10,2013-04-09 11:37:00,
2013-04-09 07:52:00,52.5,50.0,30.08,East,82,0.0,0.0,92,0.00,,,0.00,weatherlink.com 1.10,2013-04-09 11:52:00,
2013-04-09 08:07:00,54.1,52.0,30.08,East,91,0.0,1.0,92,0.00,,,0.00,weatherlink.com 1.10,2013-04-09 12:07:00,
2013-04-09 08:22:00,54.2,51.0,30.09,ESE,103,0.0,1.0,88,0.00,,,0.00,weatherlink.com 1.10,2013-04-09 12:22:00,
2013-04-09 08:37:00,56.0,51.0,30.09,ESE,103,0.0,1.0,84,0.00,,,0.00,weatherlink.com 1.10,2013-04-09 12:37:00,
2013-04-09 08:52:00,56.9,53.0,30.09,ESE,103,0.0,1.0,88,0.00,,,0.00,weatherlink.com 1.10,2013-04-09 12:52:00,
2013-04-09 09:07:00,60.3,53.0,30.08,ESE,103,0.0,1.0,78,0.00,,,0.00,weatherlink.com 1.10,2013-04-09 13:07:00,
2013-04-09 09:22:00,62.0,49.0,30.08,ESE,103,0.0,0.0,63,0.00,,,0.00,weatherlink.com 1.10,2013-04-09 13:22:00,
2013-04-09 09:37:00,61.0,47.0,30.08,West,276,1.0,3.0,61,0.00,,,0.00,weatherlink.com 1.10,2013-04-09 13:37:00,
2013-04-09 09:52:00,62.0,46.0,30.07,WSW,245,2.0,3.0,57,0.00,,,0.00,weatherlink.com 1.10,2013-04-09 13:52:00,
2013-04-09 10:07:00,61.8,47.0,30.08,West,277,1.0,4.0,58,0.00,,,0.00,weatherlink.com 1.10,2013-04-09 14:07:00,
2013-04-09 10:22:00,63.2,47.0,30.08,West,262,2.0,3.0,56,0.00,,,0.00,weatherlink.com 1.10,2013-04-09 14:22:00,
2013-04-09 10:37:00,64.0,47.0,30.08,West,278,3.0,4.0,55,0.00,,,0.00,weatherlink.com 1.10,2013-04-09 14:37:00,
2013-04-09 10:52:00,64.4,48.0,30.08,West,274,1.0,5.0,55,0.00,,,0.00,weatherlink.com 1.10,2013-04-09 14:52:00,
2013-04-09 11:07:00,65.8,49.0,30.07,SW,214,1.0,4.0,55,0.00,,,0.00,weatherlink.com 1.10,2013-04-09 15:07:00,
2013-04-09 11:22:00,66.7,49.0,30.07,WSW,246,4.0,5.0,53,0.00,,,0.00,weatherlink.com 1.10,2013-04-09 15:22:00,
2013-04-09 11:37:00,67.0,49.0,30.07,West,267,2.0,5.0,53,0.00,,,0.00,weatherlink.com 1.10,2013-04-09 15:37:00,
2013-04-09 11:53:00,68.4,51.0,30.06,NW,309,0.0,4.0,55,0.00,,,0.00,weatherlink.com 1.10,2013-04-09 15:53:00,
2013-04-09 12:07:00,68.9,52.0,30.05,SW,215,9.0,10.0,55,0.00,,,0.00,weatherlink.com 1.10,2013-04-09 16:07:00,
2013-04-09 12:23:00,69.9,53.0,30.04,SE,131,2.0,8.0,55,0.00,,,0.00,weatherlink.com 1.10,2013-04-09 16:23:00,
2013-04-09 12:38:00,70.8,53.0,30.03,North,6,3.0,9.0,54,0.00,,,0.00,weatherlink.com 1.10,2013-04-09 16:38:00,
2013-04-09 12:53:00,71.5,54.0,30.02,WNW,284,0.0,7.0,54,0.00,,,0.00,weatherlink.com 1.10,2013-04-09 16:53:00,
2013-04-09 13:08:00,72.0,53.0,30.02,South,179,1.0,8.0,52,0.00,,,0.00,weatherlink.com 1.10,2013-04-09 17:08:00,
2013-04-09 13:23:00,72.3,54.0,30.01,West,269,7.0,9.0,53,0.00,,,0.00,weatherlink.com 1.10,2013-04-09 17:23:00,
2013-04-09 13:38:00,72.4,54.0,30.01,SSW,201,4.0,10.0,53,0.00,,,0.00,weatherlink.com 1.10,2013-04-09 17:38:00,
2013-04-09 13:53:00,73.0,54.0,30.00,WNW,285,4.0,12.0,52,0.00,,,0.00,weatherlink.com 1.10,2013-04-09 17:53:00,
2013-04-09 14:08:00,73.3,54.0,29.99,WNW,293,2.0,9.0,52,0.00,,,0.00,weatherlink.com 1.10,2013-04-09 18:08:00,
2013-04-09 14:23:00,73.9,55.0,29.99,SSW,211,1.0,7.0,51,0.00,,,0.00,weatherlink.com 1.10,2013-04-09 18:23:00,
2013-04-09 14:38:00,73.7,54.0,29.98,WNW,288,3.0,7.0,51,0.00,,,0.00,weatherlink.com 1.10,2013-04-09 18:38:00,
2013-04-09 14:53:00,74.5,55.0,29.97,WSW,243,5.0,7.0,50,0.00,,,0.00,weatherlink.com 1.10,2013-04-09 18:53:00,
2013-04-09 15:08:00,75.6,54.0,29.96,WSW,241,7.0,9.0,47,0.00,,,0.00,weatherlink.com 1.10,2013-04-09 19:08:00,
2013-04-09 15:23:00,75.3,54.0,29.95,SSE,165,1.0,10.0,47,0.00,,,0.00,weatherlink.com 1.10,2013-04-09 19:23:00,
2013-04-09 15:38:00,76.2,54.0,29.94,WNW,290,2.0,12.0,46,0.00,,,0.00,weatherlink.com 1.10,2013-04-09 19:38:00,
2013-04-09 15:53:00,76.2,53.0,29.93,WSW,253,3.0,8.0,45,0.00,,,0.00,weatherlink.com 1.10,2013-04-09 19:53:00,
2013-04-09 16:08:00,77.1,53.0,29.92,WNW,286,6.0,12.0,43,0.00,,,0.00,weatherlink.com 1.10,2013-04-09 20:08:00,
2013-04-09 16:23:00,76.8,53.0,29.92,West,270,2.0,13.0,43,0.00,,,0.00,weatherlink.com 1.10,2013-04-09 20:23:00,
2013-04-09 16:38:00,77.0,53.0,29.91,SW,221,7.0,9.0,44,0.00,,,0.00,weatherlink.com 1.10,2013-04-09 20:38:00,
2013-04-09 16:53:00,78.3,53.0,29.91,SW,218,7.0,14.0,42,0.00,,,0.00,weatherlink.com 1.10,2013-04-09 20:53:00,
2013-04-09 17:08:00,78.4,53.0,29.90,WSW,245,5.0,10.0,41,0.00,,,0.00,weatherlink.com 1.10,2013-04-09 21:08:00,
2013-04-09 17:23:00,78.1,52.0,29.89,WSW,245,9.0,13.0,41,0.00,,,0.00,weatherlink.com 1.10,2013-04-09 21:23:00,
2013-04-09 18:53:00,78.6,53.0,29.89,WNW,286,5.0,10.0,41,0.00,,,0.00,weatherlink.com 1.10,2013-04-09 22:53:00,
2013-04-09 19:08:00,78.7,53.0,29.89,WSW,238,2.0,11.0,41,0.00,,,0.00,weatherlink.com 1.10,2013-04-09 23:08:00,
2013-04-09 19:23:00,78.3,53.0,29.89,West,276,0.0,9.0,41,0.00,,,0.00,weatherlink.com 1.10,2013-04-09 23:23:00,
2013-04-09 19:39:00,78.2,54.0,29.88,SW,224,2.0,9.0,43,0.00,,,0.00,weatherlink.com 1.10,2013-04-09 23:39:00,
2013-04-09 20:09:00,76.6,53.0,29.89,West,273,1.0,5.0,44,0.00,,,0.00,weatherlink.com 1.10,2013-04-10 00:09:00,
2013-04-09 20:24:00,76.2,54.0,29.89,West,267,1.0,4.0,46,0.00,,,0.00,weatherlink.com 1.10,2013-04-10 00:24:00,
2013-04-09 20:39:00,75.8,53.0,29.89,SW,226,1.0,4.0,46,0.00,,,0.00,weatherlink.com 1.10,2013-04-10 00:39:00,
2013-04-09 20:54:00,75.9,54.0,29.88,SSW,211,1.0,5.0,46,0.00,,,0.00,weatherlink.com 1.10,2013-04-10 00:54:00,
2013-04-09 21:09:00,74.7,54.0,29.88,WSW,257,0.0,4.0,48,0.00,,,0.00,weatherlink.com 1.10,2013-04-10 01:09:00,
2013-04-09 21:24:00,74.7,54.0,29.88,SSW,212,0.0,4.0,48,0.00,,,0.00,weatherlink.com 1.10,2013-04-10 01:24:00,
2013-04-09 21:39:00,74.4,53.0,29.88,West,274,0.0,4.0,48,0.00,,,0.00,weatherlink.com 1.10,2013-04-10 01:39:00,
2013-04-09 21:54:00,73.9,53.0,29.88,West,269,1.0,4.0,49,0.00,,,0.00,weatherlink.com 1.10,2013-04-10 01:54:00,
2013-04-09 22:09:00,73.2,53.0,29.89,West,276,1.0,3.0,50,0.00,,,0.00,weatherlink.com 1.10,2013-04-10 02:09:00,
2013-04-09 22:24:00,71.2,53.0,29.88,WSW,255,1.0,2.0,52,0.00,,,0.00,weatherlink.com 1.10,2013-04-10 02:24:00,
2013-04-09 22:39:00,72.1,53.0,29.87,WSW,248,1.0,4.0,52,0.00,,,0.00,weatherlink.com 1.10,2013-04-10 02:39:00,
2013-04-09 22:54:00,69.9,52.0,29.88,WNW,294,2.0,4.0,53,0.00,,,0.00,weatherlink.com 1.10,2013-04-10 02:54:00,
2013-04-09 23:09:00,68.9,53.0,29.88,WNW,287,0.0,3.0,58,0.00,,,0.00,weatherlink.com 1.10,2013-04-10 03:09:00,
2013-04-09 23:24:00,68.0,53.0,29.88,WNW,288,3.0,3.0,59,0.00,,,0.00,weatherlink.com 1.10,2013-04-10 03:24:00,
2013-04-09 23:39:00,67.8,53.0,29.88,WNW,285,4.0,5.0,59,0.00,,,0.00,weatherlink.com 1.10,2013-04-10 03:39:00,
2013-04-09 23:54:00,71.2,53.0,29.89,WNW,287,5.0,9.0,52,0.00,,,0.00,weatherlink.com 1.10,2013-04-10 03:54:00,